Time;durP1;ratioP1;P1;durP2;ratioP2;P2;SDS_P1;SDS_P2;PMS_P1;PMS_P2;Temp;Humidity;BMP_temperature;BMP_pressure;BME280_temperature;BME280_humidity;BME280_pressure;Samples;Min_cycle;Max_cycle;Signal;HPM_P1;HPM_P2
2021/07/22 00:00:35;;;;;;;;;;;20.80;61.50;;;;;;4998947;28;20649;-62
2021/07/22 00:03:00;;;;;;;;;;;20.90;61.50;;;;;;5013680;28;19924;-62
2021/07/22 00:05:26;;;;;;;;;;;20.80;61.50;;;;;;5014840;28;19928;-60
2021/07/22 00:07:51;;;;;;;;;;;20.90;61.60;;;;;;5013702;28;20776;-62
2021/07/22 00:10:17;;;;;;;;;;;20.80;61.50;;;;;;5015099;28;19936;-60
2021/07/22 00:12:42;;;;;;;;;;;20.80;61.40;;;;;;5014437;28;19917;-60
2021/07/22 00:15:08;;;;;;;;;;;20.80;61.40;;;;;;5015050;28;20652;-63
2021/07/22 00:17:33;;;;;;;;;;;20.80;61.30;;;;;;5013174;28;19917;-62
2021/07/22 00:20:02;;;;;;;;;;;20.80;61.40;;;;;;5015477;28;19928;-60
2021/07/22 00:22:27;;;;;;;;;;;20.80;61.30;;;;;;5013221;28;19952;-60
2021/07/22 00:24:53;;;;;;;;;;;20.80;61.30;;;;;;5014873;28;19952;-61
2021/07/22 00:27:18;;;;;;;;;;;20.80;61.30;;;;;;5014861;28;20987;-60
2021/07/22 00:29:44;;;;;;;;;;;20.80;61.20;;;;;;5015582;28;19967;-61
2021/07/22 00:32:12;;;;;;;;;;;20.80;61.30;;;;;;5013784;28;19917;-63
2021/07/22 00:34:37;;;;;;;;;;;20.80;61.20;;;;;;5015641;28;20400;-63
2021/07/22 00:37:03;;;;;;;;;;;20.80;61.20;;;;;;5014455;28;19921;-60
2021/07/22 00:39:28;;;;;;;;;;;20.80;61.20;;;;;;5014515;28;19917;-61
2021/07/22 00:41:54;;;;;;;;;;;20.80;61.20;;;;;;5013597;28;20469;-60
2021/07/22 00:44:19;;;;;;;;;;;20.80;61.10;;;;;;5017049;28;19944;-62
2021/07/22 00:46:45;;;;;;;;;;;20.80;61.10;;;;;;5016532;28;19918;-62
2021/07/22 00:49:10;;;;;;;;;;;20.80;61.10;;;;;;5013572;28;20027;-60
2021/07/22 00:51:36;;;;;;;;;;;20.80;61.10;;;;;;5016201;28;20341;-62
2021/07/22 00:54:04;;;;;;;;;;;20.70;61.00;;;;;;5008984;28;19921;-61
2021/07/22 00:56:29;;;;;;;;;;;20.70;61.00;;;;;;5015697;28;19929;-61
2021/07/22 00:58:55;;;;;;;;;;;20.80;61.00;;;;;;5014397;28;19913;-62
2021/07/22 01:01:20;;;;;;;;;;;20.80;60.90;;;;;;5015872;28;20300;-62
2021/07/22 01:03:45;;;;;;;;;;;20.80;60.90;;;;;;5014465;28;19917;-62
2021/07/22 01:06:11;;;;;;;;;;;20.70;60.80;;;;;;5014750;28;19917;-60
2021/07/22 01:08:36;;;;;;;;;;;20.70;60.80;;;;;;5013113;28;19928;-62
2021/07/22 01:11:02;;;;;;;;;;;20.70;60.80;;;;;;5014637;28;19917;-61
2021/07/22 01:13:27;;;;;;;;;;;20.70;60.70;;;;;;5013052;28;19979;-61
2021/07/22 01:15:53;;;;;;;;;;;20.70;60.70;;;;;;5012657;28;19918;-61
2021/07/22 01:18:18;;;;;;;;;;;20.70;60.70;;;;;;5006435;28;20362;-60
2021/07/22 01:20:43;;;;;;;;;;;20.70;60.60;;;;;;5016963;28;19921;-60
2021/07/22 01:23:09;;;;;;;;;;;20.70;60.60;;;;;;5010877;28;19924;-60
2021/07/22 01:25:34;;;;;;;;;;;20.70;60.50;;;;;;5016099;28;19913;-60
2021/07/22 01:28:00;;;;;;;;;;;20.70;60.50;;;;;;5015540;28;20394;-61
2021/07/22 01:30:25;;;;;;;;;;;20.70;60.50;;;;;;5018517;28;19917;-64
2021/07/22 01:32:52;;;;;;;;;;;20.70;60.50;;;;;;5017230;28;19932;-63
2021/07/22 01:35:18;;;;;;;;;;;20.70;60.40;;;;;;5018661;28;19932;-63
2021/07/22 01:37:43;;;;;;;;;;;20.70;60.50;;;;;;5017097;28;19921;-62
2021/07/22 01:40:09;;;;;;;;;;;20.60;60.50;;;;;;5017487;28;20346;-63
2021/07/22 01:42:35;;;;;;;;;;;20.60;60.50;;;;;;5016631;28;20000;-64
2021/07/22 01:45:00;;;;;;;;;;;20.60;60.40;;;;;;5018685;28;20535;-64
2021/07/22 01:47:26;;;;;;;;;;;20.60;60.40;;;;;;5016889;28;19925;-64
2021/07/22 01:49:51;;;;;;;;;;;20.60;60.40;;;;;;5018648;28;20398;-61
2021/07/22 01:52:17;;;;;;;;;;;20.60;60.40;;;;;;5013781;28;19944;-64
2021/07/22 01:54:42;;;;;;;;;;;20.60;60.40;;;;;;5017814;28;19917;-64
2021/07/22 01:57:08;;;;;;;;;;;20.60;60.40;;;;;;5011381;28;19933;-62
2021/07/22 01:59:36;;;;;;;;;;;20.60;60.70;;;;;;5029534;28;20441;-62
2021/07/22 02:02:05;;;;;;;;;;;20.60;60.40;;;;;;5017874;28;19944;-61
2021/07/22 02:04:30;;;;;;;;;;;20.60;60.40;;;;;;5017994;28;20672;-62
2021/07/22 02:06:56;;;;;;;;;;;20.60;60.30;;;;;;5016362;28;20220;-62
2021/07/22 02:09:21;;;;;;;;;;;20.50;60.30;;;;;;5017852;28;20464;-61
2021/07/22 02:11:47;;;;;;;;;;;20.60;60.20;;;;;;5018141;28;19921;-62
2021/07/22 02:14:12;;;;;;;;;;;20.60;60.20;;;;;;5018043;28;20102;-63
2021/07/22 02:16:40;;;;;;;;;;;20.50;60.20;;;;;;5018389;28;20348;-62
2021/07/22 02:19:06;;;;;;;;;;;20.60;60.20;;;;;;5017012;28;19921;-62
2021/07/22 02:21:32;;;;;;;;;;;20.50;60.10;;;;;;5018390;28;20572;-62
2021/07/22 02:23:57;;;;;;;;;;;20.60;60.10;;;;;;5017430;28;19921;-62
2021/07/22 02:26:23;;;;;;;;;;;20.50;60.20;;;;;;5018907;28;19928;-63
2021/07/22 02:28:49;;;;;;;;;;;20.50;60.20;;;;;;5016468;28;19917;-62
2021/07/22 02:31:15;;;;;;;;;;;20.50;60.20;;;;;;5019162;28;19921;-62
2021/07/22 02:33:41;;;;;;;;;;;20.50;60.30;;;;;;5017080;28;19917;-61
2021/07/22 02:36:06;;;;;;;;;;;20.50;60.30;;;;;;5018490;28;19927;-62
2021/07/22 02:38:31;;;;;;;;;;;20.50;60.30;;;;;;5014771;28;19917;-62
2021/07/22 02:40:57;;;;;;;;;;;20.50;60.40;;;;;;5016286;28;19913;-63
2021/07/22 02:43:22;;;;;;;;;;;20.50;60.30;;;;;;5015153;28;19933;-62
2021/07/22 02:45:48;;;;;;;;;;;20.50;60.30;;;;;;5017781;28;19917;-62
2021/07/22 02:48:13;;;;;;;;;;;20.50;60.40;;;;;;5015212;28;19913;-62
2021/07/22 02:50:39;;;;;;;;;;;20.50;60.40;;;;;;5016419;28;19917;-62
2021/07/22 02:53:04;;;;;;;;;;;20.50;60.40;;;;;;5014391;28;19956;-63
2021/07/22 02:55:30;;;;;;;;;;;20.50;60.40;;;;;;5017293;28;19917;-63
2021/07/22 02:57:55;;;;;;;;;;;20.50;60.50;;;;;;5016173;28;20668;-63
2021/07/22 03:00:20;;;;;;;;;;;20.50;60.50;;;;;;5018066;28;20015;-62
2021/07/22 03:02:46;;;;;;;;;;;20.50;60.50;;;;;;4995710;28;19917;-61
2021/07/22 03:05:11;;;;;;;;;;;20.50;60.60;;;;;;5018321;28;20212;-61
2021/07/22 03:07:37;;;;;;;;;;;20.50;60.60;;;;;;5016625;28;19924;-61
2021/07/22 03:10:03;;;;;;;;;;;20.50;60.70;;;;;;5016015;28;19920;-61
2021/07/22 03:12:28;;;;;;;;;;;20.50;60.80;;;;;;5017265;28;19917;-62
2021/07/22 03:14:53;;;;;;;;;;;20.50;60.90;;;;;;5017890;28;20034;-62
2021/07/22 03:17:19;;;;;;;;;;;20.50;60.90;;;;;;5015070;28;19953;-62
2021/07/22 03:19:44;;;;;;;;;;;20.50;60.90;;;;;;5016385;28;19927;-62
2021/07/22 03:22:10;;;;;;;;;;;20.50;61.00;;;;;;5015440;28;19914;-62
2021/07/22 03:24:35;;;;;;;;;;;20.50;61.00;;;;;;5011261;28;20369;-61
2021/07/22 03:27:01;;;;;;;;;;;20.50;61.10;;;;;;5013709;28;19917;-61
2021/07/22 03:29:26;;;;;;;;;;;20.50;61.10;;;;;;5014849;28;21632;-63
2021/07/22 03:31:52;;;;;;;;;;;20.50;61.20;;;;;;5012929;28;19927;-61
2021/07/22 03:34:20;;;;;;;;;;;20.50;61.20;;;;;;5016512;28;19917;-60
2021/07/22 03:36:46;;;;;;;;;;;20.50;61.40;;;;;;5017513;28;19913;-61
2021/07/22 03:39:11;;;;;;;;;;;20.50;61.50;;;;;;5013629;28;20516;-62
2021/07/22 03:41:38;;;;;;;;;;;20.50;61.60;;;;;;5015926;28;19921;-63
2021/07/22 03:44:03;;;;;;;;;;;20.50;61.70;;;;;;5015005;28;19917;-62
2021/07/22 03:46:31;;;;;;;;;;;20.40;61.70;;;;;;5015692;28;20344;-62
2021/07/22 03:48:57;;;;;;;;;;;20.40;61.70;;;;;;5015198;28;20521;-63
2021/07/22 03:51:22;;;;;;;;;;;20.40;61.80;;;;;;5012855;28;19921;-61
2021/07/22 03:53:47;;;;;;;;;;;20.40;61.90;;;;;;5012719;28;20979;-63
2021/07/22 03:56:13;;;;;;;;;;;20.40;61.90;;;;;;5016933;22;19984;-59
2021/07/22 03:58:38;;;;;;;;;;;20.40;62.10;;;;;;4995116;28;19921;-58
2021/07/22 04:01:05;;;;;;;;;;;20.40;62.20;;;;;;4995022;28;19922;-59
2021/07/22 04:03:35;;;;;;;;;;;20.40;62.30;;;;;;4995514;28;20024;-60
2021/07/22 04:06:00;;;;;;;;;;;20.40;62.30;;;;;;4995502;28;19914;-59
2021/07/22 04:08:26;;;;;;;;;;;20.40;62.40;;;;;;4996917;28;20709;-61
2021/07/22 04:10:51;;;;;;;;;;;20.40;62.40;;;;;;4996318;28;19921;-58
2021/07/22 04:13:17;;;;;;;;;;;20.50;62.50;;;;;;4997061;28;19922;-60
2021/07/22 04:15:42;;;;;;;;;;;20.40;62.50;;;;;;4994949;28;19914;-59
2021/07/22 04:18:08;;;;;;;;;;;20.40;62.60;;;;;;4993053;28;20377;-60
2021/07/22 04:20:33;;;;;;;;;;;20.40;62.70;;;;;;4996341;28;20016;-61
2021/07/22 04:22:59;;;;;;;;;;;20.40;62.80;;;;;;4994765;28;20551;-60
2021/07/22 04:25:24;;;;;;;;;;;20.40;62.80;;;;;;4996216;28;19920;-59
2021/07/22 04:27:50;;;;;;;;;;;20.40;62.90;;;;;;4996427;28;20511;-59
2021/07/22 04:30:15;;;;;;;;;;;20.40;62.90;;;;;;4995805;28;19921;-61
2021/07/22 04:32:41;;;;;;;;;;;20.40;63.00;;;;;;4996436;28;20116;-59
2021/07/22 04:35:08;;;;;;;;;;;20.40;63.10;;;;;;4995813;28;20004;-59
2021/07/22 04:37:37;;;;;;;;;;;20.40;63.10;;;;;;4989586;28;20008;-60
2021/07/22 04:40:08;;;;;;;;;;;20.40;63.20;;;;;;4995874;28;19925;-61
2021/07/22 04:42:34;;;;;;;;;;;20.40;63.20;;;;;;4995575;28;19921;-62
2021/07/22 04:44:59;;;;;;;;;;;20.40;63.30;;;;;;4996885;28;19917;-61
2021/07/22 04:47:25;;;;;;;;;;;20.40;63.20;;;;;;4995314;28;19953;-61
2021/07/22 04:49:50;;;;;;;;;;;20.40;63.30;;;;;;4996031;28;19920;-59
2021/07/22 04:52:16;;;;;;;;;;;20.50;63.50;;;;;;4995919;28;19988;-59
2021/07/22 04:54:41;;;;;;;;;;;20.40;63.60;;;;;;4995099;28;19922;-60
2021/07/22 04:57:07;;;;;;;;;;;20.40;63.70;;;;;;4995999;28;20062;-61
2021/07/22 04:59:32;;;;;;;;;;;20.40;63.70;;;;;;4995593;28;19920;-60
2021/07/22 05:01:58;;;;;;;;;;;20.50;63.90;;;;;;4997047;28;19913;-58
2021/07/22 05:04:23;;;;;;;;;;;20.50;63.90;;;;;;4998976;28;19925;-61
2021/07/22 05:06:48;;;;;;;;;;;20.40;63.80;;;;;;5000331;28;19918;-61
2021/07/22 05:09:14;;;;;;;;;;;20.40;63.90;;;;;;4999664;28;19917;-59
2021/07/22 05:11:40;;;;;;;;;;;20.40;64.20;;;;;;5000194;28;20438;-59
2021/07/22 05:14:05;;;;;;;;;;;20.40;64.10;;;;;;4999046;28;19917;-59
2021/07/22 05:16:31;;;;;;;;;;;20.40;64.20;;;;;;4999898;28;19945;-59
2021/07/22 05:18:56;;;;;;;;;;;20.40;64.30;;;;;;4999524;28;19921;-63
2021/07/22 05:21:21;;;;;;;;;;;20.40;64.20;;;;;;5000664;28;19913;-62
2021/07/22 05:23:47;;;;;;;;;;;20.50;64.50;;;;;;4998769;28;19925;-62
2021/07/22 05:26:12;;;;;;;;;;;20.40;64.30;;;;;;5000101;28;20591;-62
2021/07/22 05:28:38;;;;;;;;;;;20.40;64.20;;;;;;4998685;28;19920;-60
2021/07/22 05:31:06;;;;;;;;;;;20.50;64.20;;;;;;4998783;28;21241;-62
2021/07/22 05:33:31;;;;;;;;;;;20.50;64.10;;;;;;4999923;28;19917;-62
2021/07/22 05:35:59;;;;;;;;;;;20.50;64.00;;;;;;4999628;28;19921;-63
2021/07/22 05:38:25;;;;;;;;;;;20.50;64.20;;;;;;4999521;28;20007;-61
2021/07/22 05:40:50;;;;;;;;;;;20.50;64.20;;;;;;4999397;28;19921;-62
2021/07/22 05:43:16;;;;;;;;;;;20.50;64.30;;;;;;4999212;28;19928;-62
2021/07/22 05:45:41;;;;;;;;;;;20.50;64.40;;;;;;4998227;28;20401;-61
2021/07/22 05:48:07;;;;;;;;;;;20.50;64.40;;;;;;4999029;28;19921;-60
2021/07/22 05:50:32;;;;;;;;;;;20.50;64.10;;;;;;4997096;28;19956;-60
2021/07/22 05:52:58;;;;;;;;;;;20.50;64.20;;;;;;4998764;28;19913;-62
2021/07/22 05:55:25;;;;;;;;;;;20.50;64.10;;;;;;4999440;28;20415;-58
2021/07/22 05:57:50;;;;;;;;;;;20.50;64.20;;;;;;4999185;28;19917;-60
2021/07/22 06:00:16;;;;;;;;;;;20.50;64.20;;;;;;4999947;28;19914;-60
2021/07/22 06:02:41;;;;;;;;;;;20.50;64.20;;;;;;4999268;28;19917;-60
2021/07/22 06:05:07;;;;;;;;;;;20.50;64.20;;;;;;4997955;28;19914;-60
2021/07/22 06:07:33;;;;;;;;;;;20.50;64.20;;;;;;4997797;28;19921;-59
2021/07/22 06:09:58;;;;;;;;;;;20.50;64.40;;;;;;4998767;28;19917;-59
2021/07/22 06:12:24;;;;;;;;;;;20.50;64.40;;;;;;4998514;28;19921;-59
2021/07/22 06:14:49;;;;;;;;;;;20.40;64.50;;;;;;4996471;28;19921;-62
2021/07/22 06:17:14;;;;;;;;;;;20.50;64.80;;;;;;4999215;28;19920;-60
2021/07/22 06:19:40;;;;;;;;;;;20.40;64.80;;;;;;4995461;28;19921;-59
2021/07/22 06:22:05;;;;;;;;;;;20.40;64.70;;;;;;4999490;28;19913;-58
2021/07/22 06:24:31;;;;;;;;;;;20.40;64.60;;;;;;4998347;28;20436;-61
2021/07/22 06:26:56;;;;;;;;;;;20.40;64.70;;;;;;4997774;28;19921;-59
2021/07/22 06:29:22;;;;;;;;;;;20.40;64.70;;;;;;5000047;28;19917;-60
2021/07/22 06:31:47;;;;;;;;;;;20.40;64.70;;;;;;5000216;28;19917;-59
2021/07/22 06:34:13;;;;;;;;;;;20.40;65.40;;;;;;4999572;28;19922;-60
2021/07/22 06:36:38;;;;;;;;;;;20.40;64.80;;;;;;4999152;28;19968;-62
2021/07/22 06:39:04;;;;;;;;;;;20.40;65.00;;;;;;4998060;28;20480;-62
2021/07/22 06:41:30;;;;;;;;;;;20.40;65.10;;;;;;4999337;28;20271;-61
2021/07/22 06:43:55;;;;;;;;;;;20.40;65.30;;;;;;4999053;28;20637;-59
2021/07/22 06:46:21;;;;;;;;;;;20.40;65.50;;;;;;4999070;28;20219;-62
2021/07/22 06:48:47;;;;;;;;;;;20.40;65.30;;;;;;4998454;28;19917;-61
2021/07/22 06:51:13;;;;;;;;;;;20.40;65.10;;;;;;4998431;28;19996;-63
2021/07/22 06:53:38;;;;;;;;;;;20.40;65.00;;;;;;4998487;28;19918;-61
2021/07/22 06:56:04;;;;;;;;;;;20.50;65.00;;;;;;4998184;28;19976;-60
2021/07/22 06:58:29;;;;;;;;;;;20.40;64.80;;;;;;4998349;28;19913;-60
2021/07/22 07:00:55;;;;;;;;;;;20.40;64.70;;;;;;4998838;28;19917;-59
2021/07/22 07:03:20;;;;;;;;;;;20.50;64.70;;;;;;4999051;28;19921;-61
2021/07/22 07:05:47;;;;;;;;;;;20.40;64.60;;;;;;4998642;28;19917;-61
2021/07/22 07:08:12;;;;;;;;;;;20.40;64.60;;;;;;4997669;28;19913;-62
2021/07/22 07:10:38;;;;;;;;;;;20.40;64.60;;;;;;4997850;28;19933;-61
2021/07/22 07:13:03;;;;;;;;;;;20.40;64.50;;;;;;4999010;28;19983;-61
2021/07/22 07:15:29;;;;;;;;;;;20.40;64.60;;;;;;4998137;28;19918;-63
2021/07/22 07:17:57;;;;;;;;;;;20.40;64.60;;;;;;4998179;28;19967;-62
2021/07/22 07:20:22;;;;;;;;;;;20.40;64.70;;;;;;4996820;28;20016;-62
2021/07/22 07:22:48;;;;;;;;;;;20.40;64.60;;;;;;4998071;28;19929;-63
2021/07/22 07:25:14;;;;;;;;;;;20.40;64.60;;;;;;4998112;28;19922;-61
2021/07/22 07:27:40;;;;;;;;;;;20.40;64.60;;;;;;4997518;28;19914;-60
2021/07/22 07:30:05;;;;;;;;;;;20.40;64.70;;;;;;4998324;28;19948;-60
2021/07/22 07:32:31;;;;;;;;;;;20.40;64.70;;;;;;4998082;28;20336;-59
2021/07/22 07:34:56;;;;;;;;;;;20.40;64.60;;;;;;4997634;28;19925;-58
2021/07/22 07:37:22;;;;;;;;;;;20.40;64.70;;;;;;4997858;28;19917;-60
2021/07/22 07:39:47;;;;;;;;;;;20.40;64.60;;;;;;4997368;28;19972;-59
2021/07/22 07:42:13;;;;;;;;;;;20.40;64.60;;;;;;4997626;28;19918;-60
2021/07/22 07:44:38;;;;;;;;;;;20.40;64.50;;;;;;4997647;28;19921;-61
2021/07/22 07:47:04;;;;;;;;;;;20.40;64.40;;;;;;4998057;28;20176;-59
2021/07/22 07:49:29;;;;;;;;;;;20.40;64.60;;;;;;4992869;28;19921;-60
2021/07/22 07:51:55;;;;;;;;;;;20.40;65.10;;;;;;4998377;28;20406;-61
2021/07/22 07:54:21;;;;;;;;;;;20.40;65.80;;;;;;4993504;28;20326;-60
2021/07/22 07:56:47;;;;;;;;;;;20.40;65.70;;;;;;4997141;28;19933;-61
2021/07/22 07:59:13;;;;;;;;;;;20.40;65.50;;;;;;4997843;28;19920;-62
2021/07/22 08:01:38;;;;;;;;;;;20.40;65.30;;;;;;4997248;28;19921;-62
2021/07/22 08:04:03;;;;;;;;;;;20.40;65.30;;;;;;4998820;28;19928;-62
2021/07/22 08:06:29;;;;;;;;;;;20.40;65.50;;;;;;4998973;28;20432;-62
2021/07/22 08:08:54;;;;;;;;;;;20.40;65.50;;;;;;4997680;28;19997;-61
2021/07/22 08:11:20;;;;;;;;;;;20.40;65.40;;;;;;4997216;28;19913;-61
2021/07/22 08:13:45;;;;;;;;;;;20.40;65.30;;;;;;4998692;28;19922;-62
2021/07/22 08:16:15;;;;;;;;;;;20.40;65.40;;;;;;4997620;28;20001;-61
2021/07/22 08:18:40;;;;;;;;;;;20.40;65.50;;;;;;4997562;28;20393;-60
2021/07/22 08:21:06;;;;;;;;;;;20.40;65.10;;;;;;4997290;28;19913;-61
2021/07/22 08:23:32;;;;;;;;;;;20.40;64.70;;;;;;4998154;28;19928;-60
2021/07/22 08:25:57;;;;;;;;;;;20.40;64.30;;;;;;4998808;28;20008;-60
2021/07/22 08:28:22;;;;;;;;;;;20.40;64.70;;;;;;4998732;28;19921;-60
2021/07/22 08:30:48;;;;;;;;;;;20.40;65.00;;;;;;4998506;28;19925;-62
2021/07/22 08:33:13;;;;;;;;;;;20.30;65.00;;;;;;4998939;28;19971;-62
2021/07/22 08:35:39;;;;;;;;;;;20.30;65.10;;;;;;4999709;28;20274;-62
2021/07/22 08:38:04;;;;;;;;;;;20.30;65.00;;;;;;4998913;28;19917;-59
2021/07/22 08:40:30;;;;;;;;;;;20.40;62.80;;;;;;4999434;28;19975;-61
2021/07/22 08:42:58;;;;;;;;;;;20.40;63.00;;;;;;4998050;28;19924;-63
2021/07/22 08:45:23;;;;;;;;;;;20.40;63.60;;;;;;5005045;28;19949;-61
2021/07/22 08:47:49;;;;;;;;;;;20.40;64.10;;;;;;4998161;28;20370;-61
2021/07/22 08:50:15;;;;;;;;;;;20.40;64.20;;;;;;4995564;28;19929;-59
2021/07/22 08:52:41;;;;;;;;;;;20.40;64.20;;;;;;4996183;28;19917;-59
2021/07/22 08:55:07;;;;;;;;;;;20.40;63.80;;;;;;4996894;28;19951;-58
2021/07/22 08:57:33;;;;;;;;;;;20.40;63.80;;;;;;4995926;28;19944;-59
2021/07/22 08:59:58;;;;;;;;;;;20.30;63.90;;;;;;4996858;28;19917;-60
2021/07/22 09:02:26;;;;;;;;;;;20.40;64.00;;;;;;4995926;28;19917;-60
2021/07/22 09:04:53;;;;;;;;;;;20.40;63.50;;;;;;4995934;28;19921;-60
2021/07/22 09:07:19;;;;;;;;;;;20.30;63.20;;;;;;4998582;28;19941;-60
2021/07/22 09:10:07;;;;;;;;;;;20.30;63.40;;;;;;4997564;28;20301;-58
2021/07/22 09:12:43;;;;;;;;;;;20.40;63.30;;;;;;4997778;28;19924;-61
2021/07/22 09:15:20;;;;;;;;;;;20.40;63.60;;;;;;4996408;28;19920;-61
2021/07/22 09:17:46;;;;;;;;;;;20.40;62.20;;;;;;4997396;28;19918;-58
2021/07/22 09:20:12;;;;;;;;;;;20.50;61.80;;;;;;4997123;28;19959;-62
2021/07/22 09:22:39;;;;;;;;;;;20.50;60.50;;;;;;4998667;28;19970;-61
2021/07/22 09:25:05;;;;;;;;;;;20.50;61.40;;;;;;4996524;28;20473;-58
2021/07/22 09:27:33;;;;;;;;;;;20.50;59.80;;;;;;4999135;28;19920;-59
2021/07/22 09:29:59;;;;;;;;;;;20.50;60.70;;;;;;4996876;28;19925;-61
2021/07/22 09:32:31;;;;;;;;;;;20.50;60.40;;;;;;4997085;28;19917;-61
2021/07/22 09:35:03;;;;;;;;;;;20.40;61.20;;;;;;4996138;28;20371;-59
2021/07/22 09:37:28;;;;;;;;;;;20.50;59.80;;;;;;4996461;28;20765;-60
2021/07/22 09:39:54;;;;;;;;;;;20.50;60.00;;;;;;4995641;28;19925;-59
2021/07/22 09:42:19;;;;;;;;;;;20.50;60.90;;;;;;4995958;28;20539;-59
2021/07/22 09:44:45;;;;;;;;;;;20.40;60.70;;;;;;4995391;28;19932;-61
2021/07/22 09:47:10;;;;;;;;;;;20.40;60.70;;;;;;4993857;28;19972;-59
2021/07/22 09:49:37;;;;;;;;;;;20.40;59.90;;;;;;4996733;28;19917;-61
2021/07/22 09:52:03;;;;;;;;;;;20.40;59.90;;;;;;5000097;28;19918;-60
2021/07/22 09:54:32;;;;;;;;;;;20.40;58.90;;;;;;4996229;28;19917;-60
2021/07/22 09:56:57;;;;;;;;;;;20.50;58.30;;;;;;4977059;28;19967;-59
2021/07/22 09:59:22;;;;;;;;;;;20.50;57.60;;;;;;5009824;28;19925;-58
2021/07/22 10:01:48;;;;;;;;;;;20.50;57.80;;;;;;4997715;28;19921;-58
2021/07/22 10:04:13;;;;;;;;;;;20.40;58.20;;;;;;4997647;28;20745;-59
2021/07/22 10:06:39;;;;;;;;;;;20.40;57.70;;;;;;4998605;28;19917;-60
2021/07/22 10:09:04;;;;;;;;;;;20.50;57.50;;;;;;4995983;28;19922;-58
2021/07/22 10:11:30;;;;;;;;;;;20.50;57.70;;;;;;5012961;22;19998;-61
2021/07/22 10:13:56;;;;;;;;;;;20.40;57.00;;;;;;4995567;28;19944;-61
2021/07/22 10:16:25;;;;;;;;;;;20.50;57.40;;;;;;4995183;28;20370;-65
2021/07/22 10:18:50;;;;;;;;;;;20.50;57.20;;;;;;5008698;28;19917;-65
2021/07/22 10:21:16;;;;;;;;;;;20.50;57.00;;;;;;5014637;28;19921;-67
2021/07/22 10:23:41;;;;;;;;;;;20.40;56.10;;;;;;4988336;28;20317;-65
2021/07/22 10:26:07;;;;;;;;;;;20.50;56.10;;;;;;4996017;28;20396;-61
2021/07/22 10:28:33;;;;;;;;;;;20.40;56.80;;;;;;5007625;28;19917;-61
2021/07/22 10:30:58;;;;;;;;;;;20.40;57.00;;;;;;5016695;28;19917;-60
2021/07/22 10:33:23;;;;;;;;;;;20.40;57.40;;;;;;5015562;28;20419;-61
2021/07/22 10:35:52;;;;;;;;;;;20.40;57.60;;;;;;5017798;28;19936;-61
2021/07/22 10:38:21;;;;;;;;;;;20.40;56.70;;;;;;5014442;28;19917;-60
2021/07/22 10:41:01;;;;;;;;;;;20.40;57.60;;;;;;5017537;28;19924;-61
2021/07/22 10:43:29;;;;;;;;;;;20.40;57.40;;;;;;5009692;28;19921;-61
2021/07/22 10:45:56;;;;;;;;;;;20.40;57.10;;;;;;4996777;28;20661;-60
2021/07/22 10:48:27;;;;;;;;;;;20.40;56.60;;;;;;4997595;28;19917;-61
2021/07/22 10:50:56;;;;;;;;;;;20.40;56.90;;;;;;4997012;28;19917;-60
2021/07/22 10:53:36;;;;;;;;;;;20.50;55.50;;;;;;5001157;28;20297;-60
2021/07/22 10:56:02;;;;;;;;;;;20.40;55.50;;;;;;5015604;28;19913;-60
2021/07/22 10:58:30;;;;;;;;;;;20.40;56.50;;;;;;5009541;28;20008;-61
2021/07/22 11:00:56;;;;;;;;;;;20.40;56.40;;;;;;4996509;28;19913;-61
2021/07/22 11:03:34;;;;;;;;;;;20.40;56.10;;;;;;4998087;28;19940;-59
2021/07/22 11:06:08;;;;;;;;;;;20.40;56.60;;;;;;4996988;28;19928;-60
2021/07/22 11:08:36;;;;;;;;;;;20.40;57.00;;;;;;4996340;28;20405;-59
2021/07/22 11:11:02;;;;;;;;;;;20.40;57.40;;;;;;5009752;28;19925;-59
2021/07/22 11:13:34;;;;;;;;;;;20.40;57.50;;;;;;4997142;28;19952;-59
2021/07/22 11:16:00;;;;;;;;;;;20.40;57.70;;;;;;5010153;28;19917;-61
2021/07/22 11:18:44;;;;;;;;;;;20.40;57.70;;;;;;4995449;28;19963;-62
2021/07/22 11:21:09;;;;;;;;;;;20.40;57.80;;;;;;5013757;28;20401;-60
2021/07/22 11:23:35;;;;;;;;;;;20.40;58.00;;;;;;5017453;28;19953;-60
2021/07/22 11:26:00;;;;;;;;;;;20.40;57.50;;;;;;5003803;28;20291;-60
2021/07/22 11:28:26;;;;;;;;;;;20.40;57.50;;;;;;5002998;28;20214;-60
2021/07/22 11:31:07;;;;;;;;;;;20.40;57.70;;;;;;5016276;28;19979;-59
2021/07/22 11:33:36;;;;;;;;;;;20.40;57.50;;;;;;5003535;28;19921;-60
2021/07/22 11:36:03;;;;;;;;;;;20.40;57.40;;;;;;4997022;28;19924;-60
2021/07/22 11:38:28;;;;;;;;;;;20.40;57.30;;;;;;4997089;28;19917;-60
2021/07/22 11:40:54;;;;;;;;;;;20.40;57.10;;;;;;5010311;28;19921;-60
2021/07/22 11:43:30;;;;;;;;;;;20.40;57.20;;;;;;5014285;28;19971;-60
2021/07/22 11:45:55;;;;;;;;;;;20.40;57.30;;;;;;5008671;28;20617;-60
2021/07/22 11:48:24;;;;;;;;;;;20.40;57.30;;;;;;5015143;28;21332;-59
2021/07/22 11:51:06;;;;;;;;;;;20.40;57.40;;;;;;5017679;28;20402;-61
2021/07/22 11:53:31;;;;;;;;;;;20.40;57.50;;;;;;5000075;28;19914;-60
2021/07/22 11:55:57;;;;;;;;;;;20.40;57.60;;;;;;5000386;28;19960;-60
2021/07/22 11:58:23;;;;;;;;;;;20.40;57.60;;;;;;4996349;28;20381;-60
2021/07/22 12:00:48;;;;;;;;;;;20.40;57.60;;;;;;4982444;28;20481;-60
2021/07/22 12:03:14;;;;;;;;;;;20.40;57.90;;;;;;5007541;28;20430;-61
2021/07/22 12:05:39;;;;;;;;;;;20.40;58.00;;;;;;4994662;28;19987;-60
2021/07/22 12:08:17;;;;;;;;;;;20.40;57.70;;;;;;4996035;28;19917;-60
2021/07/22 12:10:42;;;;;;;;;;;20.40;57.40;;;;;;4995442;28;20320;-60
2021/07/22 12:13:08;;;;;;;;;;;20.40;57.40;;;;;;5009849;28;20007;-61
2021/07/22 12:15:37;;;;;;;;;;;20.40;58.50;;;;;;5015150;28;19996;-59
2021/07/22 12:18:03;;;;;;;;;;;20.50;59.10;;;;;;5013816;28;19913;-61
2021/07/22 12:20:28;;;;;;;;;;;20.50;58.30;;;;;;5013103;28;19913;-60
2021/07/22 12:22:53;;;;;;;;;;;20.50;58.00;;;;;;4999722;28;19921;-60
2021/07/22 12:25:19;;;;;;;;;;;20.50;58.30;;;;;;5009093;28;20298;-60
2021/07/22 12:27:54;;;;;;;;;;;20.50;57.90;;;;;;4993710;28;19920;-61
2021/07/22 12:30:23;;;;;;;;;;;20.50;58.10;;;;;;5003940;28;19924;-61
2021/07/22 12:32:52;;;;;;;;;;;20.50;58.90;;;;;;5012409;28;19924;-60
2021/07/22 12:35:30;;;;;;;;;;;20.50;58.80;;;;;;5000487;28;19924;-62
2021/07/22 12:37:56;;;;;;;;;;;20.50;57.50;;;;;;5011898;28;19924;-61
2021/07/22 12:40:31;;;;;;;;;;;20.50;59.20;;;;;;4995264;28;19971;-61
2021/07/22 12:42:57;;;;;;;;;;;20.50;60.50;;;;;;4995692;28;19961;-59
2021/07/22 12:45:23;;;;;;;;;;;20.50;59.40;;;;;;5000674;28;19917;-59
2021/07/22 12:47:48;;;;;;;;;;;20.50;58.40;;;;;;5007671;28;19998;-59
2021/07/22 12:50:33;;;;;;;;;;;20.50;57.60;;;;;;5015016;28;19924;-61
2021/07/22 12:53:01;;;;;;;;;;;20.50;58.20;;;;;;4989041;28;20298;-62
2021/07/22 12:55:30;;;;;;;;;;;20.50;58.60;;;;;;4989696;28;19971;-61
2021/07/22 12:57:55;;;;;;;;;;;20.50;58.50;;;;;;5002178;28;19925;-60
2021/07/22 13:00:20;;;;;;;;;;;20.50;57.60;;;;;;5007971;28;19917;-62
2021/07/22 13:02:56;;;;;;;;;;;20.50;57.20;;;;;;4995689;28;20574;-62
2021/07/22 13:05:22;;;;;;;;;;;20.50;57.60;;;;;;4997703;28;19932;-60
2021/07/22 13:07:50;;;;;;;;;;;20.50;57.10;;;;;;5024988;28;19925;-61
2021/07/22 13:10:16;;;;;;;;;;;20.50;57.00;;;;;;5015095;28;20880;-60
2021/07/22 13:12:41;;;;;;;;;;;20.50;58.00;;;;;;5015008;28;19913;-61
2021/07/22 13:15:07;;;;;;;;;;;20.50;58.20;;;;;;5014577;28;19975;-61
2021/07/22 13:17:39;;;;;;;;;;;20.50;58.10;;;;;;5011809;28;19913;-60
2021/07/22 13:20:08;;;;;;;;;;;20.50;58.00;;;;;;5013028;28;19939;-58
2021/07/22 13:22:33;;;;;;;;;;;20.50;58.00;;;;;;5015240;28;19924;-59
2021/07/22 13:24:59;;;;;;;;;;;20.50;57.70;;;;;;5012540;28;19917;-61
2021/07/22 13:27:24;;;;;;;;;;;20.50;57.40;;;;;;5033487;28;19974;-60
2021/07/22 13:29:49;;;;;;;;;;;20.50;57.30;;;;;;5038465;28;19923;-61
2021/07/22 13:32:15;;;;;;;;;;;20.50;57.60;;;;;;5037461;28;20405;-61
2021/07/22 13:34:41;;;;;;;;;;;20.60;57.30;;;;;;5038357;28;20121;-59
2021/07/22 13:37:07;;;;;;;;;;;20.50;57.30;;;;;;5038515;28;19913;-62
2021/07/22 13:39:32;;;;;;;;;;;20.60;57.00;;;;;;5037057;28;20563;-59
2021/07/22 13:41:58;;;;;;;;;;;20.50;57.20;;;;;;5038092;28;19974;-59
2021/07/22 13:44:24;;;;;;;;;;;20.60;56.80;;;;;;5038079;28;20615;-62
2021/07/22 13:46:49;;;;;;;;;;;20.60;56.70;;;;;;5038438;28;19920;-61
2021/07/22 13:49:15;;;;;;;;;;;20.60;57.00;;;;;;5038221;28;20385;-60
2021/07/22 13:51:40;;;;;;;;;;;20.60;56.70;;;;;;5037381;28;19921;-59
2021/07/22 13:54:06;;;;;;;;;;;20.60;56.70;;;;;;5030053;28;19913;-61
2021/07/22 13:56:32;;;;;;;;;;;20.60;57.10;;;;;;5038345;28;19913;-61
2021/07/22 13:58:57;;;;;;;;;;;20.60;57.10;;;;;;5034251;28;19978;-60
2021/07/22 14:01:23;;;;;;;;;;;20.60;57.00;;;;;;5034805;28;19916;-60
2021/07/22 14:03:48;;;;;;;;;;;20.60;56.60;;;;;;5035551;28;19925;-61
2021/07/22 14:06:14;;;;;;;;;;;20.60;56.60;;;;;;5037411;28;19912;-60
2021/07/22 14:08:40;;;;;;;;;;;20.60;56.20;;;;;;5037299;28;19913;-59
2021/07/22 14:11:05;;;;;;;;;;;20.60;56.30;;;;;;5036900;28;20359;-59